sensor_id;sensor_type;location;lat;lon;timestamp;pressure;altitude;pressure_sealevel;temperature;humidity
48041;BME280;33815;48.386;11.738;2023-03-31T00:02:01;96110.34;;;4.01;100.00
48041;BME280;33815;48.386;11.738;2023-03-31T00:04:27;96108.41;;;3.93;100.00
48041;BME280;33815;48.386;11.738;2023-03-31T00:06:56;96035.13;;;3.52;100.00
48041;BME280;33815;48.386;11.738;2023-03-31T00:09:21;96090.25;;;3.83;100.00
48041;BME280;33815;48.386;11.738;2023-03-31T00:11:50;96065.91;;;3.65;100.00
48041;BME280;33815;48.386;11.738;2023-03-31T00:14:17;96092.84;;;3.72;100.00
48041;BME280;33815;48.386;11.738;2023-03-31T00:16:43;96062.91;;;3.48;100.00
48041;BME280;33815;48.386;11.738;2023-03-31T00:19:10;96081.59;;;3.62;100.00
48041;BME280;33815;48.386;11.738;2023-03-31T00:21:43;96074.59;;;3.64;100.00
48041;BME280;33815;48.386;11.738;2023-03-31T00:24:10;96072.56;;;3.67;100.00
48041;BME280;33815;48.386;11.738;2023-03-31T00:26:36;96078.69;;;3.66;100.00
48041;BME280;33815;48.386;11.738;2023-03-31T00:29:06;96072.13;;;3.62;100.00
48041;BME280;33815;48.386;11.738;2023-03-31T00:31:32;96072.47;;;3.57;100.00
48041;BME280;33815;48.386;11.738;2023-03-31T00:33:58;96069.56;;;3.51;100.00
48041;BME280;33815;48.386;11.738;2023-03-31T00:36:24;96065.72;;;3.45;100.00
48041;BME280;33815;48.386;11.738;2023-03-31T00:38:56;96067.81;;;3.40;100.00
48041;BME280;33815;48.386;11.738;2023-03-31T00:41:24;96064.66;;;3.36;100.00
48041;BME280;33815;48.386;11.738;2023-03-31T00:44:16;96054.03;;;3.30;100.00
48041;BME280;33815;48.386;11.738;2023-03-31T00:47:16;96049.78;;;3.29;100.00
48041;BME280;33815;48.386;11.738;2023-03-31T00:49:37;96018.91;;;3.06;100.00
48041;BME280;33815;48.386;11.738;2023-03-31T00:52:26;96052.94;;;3.32;100.00
48041;BME280;33815;48.386;11.738;2023-03-31T00:54:58;96039.84;;;3.35;100.00
48041;BME280;33815;48.386;11.738;2023-03-31T00:57:26;96033.41;;;3.41;100.00
48041;BME280;33815;48.386;11.738;2023-03-31T00:59:58;96040.41;;;3.50;100.00
48041;BME280;33815;48.386;11.738;2023-03-31T01:02:26;96023.19;;;3.51;100.00
48041;BME280;33815;48.386;11.738;2023-03-31T01:04:57;96015.34;;;3.52;100.00
48041;BME280;33815;48.386;11.738;2023-03-31T01:07:33;96011.00;;;3.53;100.00
48041;BME280;33815;48.386;11.738;2023-03-31T01:10:02;96003.16;;;3.54;100.00
48041;BME280;33815;48.386;11.738;2023-03-31T01:12:30;95958.09;;;3.37;100.00
48041;BME280;33815;48.386;11.738;2023-03-31T01:14:57;96000.78;;;3.63;100.00
48041;BME280;33815;48.386;11.738;2023-03-31T01:17:23;95990.94;;;3.68;100.00
48041;BME280;33815;48.386;11.738;2023-03-31T01:26:03;95986.75;;;3.88;100.00
48041;BME280;33815;48.386;11.738;2023-03-31T01:31:30;95985.41;;;4.05;100.00
48041;BME280;33815;48.386;11.738;2023-03-31T01:42:23;95967.28;;;4.16;100.00
48041;BME280;33815;48.386;11.738;2023-03-31T01:45:06;95949.44;;;4.03;100.00
48041;BME280;33815;48.386;11.738;2023-03-31T01:47:55;95949.81;;;3.99;100.00
48041;BME280;33815;48.386;11.738;2023-03-31T01:50:28;95946.53;;;3.97;100.00
48041;BME280;33815;48.386;11.738;2023-03-31T01:53:08;95939.91;;;3.83;100.00
48041;BME280;33815;48.386;11.738;2023-03-31T01:55:46;95901.72;;;3.55;100.00
48041;BME280;33815;48.386;11.738;2023-03-31T01:58:19;95929.78;;;3.70;100.00
48041;BME280;33815;48.386;11.738;2023-03-31T02:00:56;95924.41;;;3.62;100.00
48041;BME280;33815;48.386;11.738;2023-03-31T02:03:29;95921.50;;;3.55;100.00
48041;BME280;33815;48.386;11.738;2023-03-31T02:06:01;95921.63;;;3.53;100.00
48041;BME280;33815;48.386;11.738;2023-03-31T02:08:32;95915.41;;;3.56;100.00
48041;BME280;33815;48.386;11.738;2023-03-31T02:11:00;95913.97;;;3.63;100.00
48041;BME280;33815;48.386;11.738;2023-03-31T02:13:27;95911.28;;;3.65;100.00
48041;BME280;33815;48.386;11.738;2023-03-31T02:15:58;95910.09;;;3.69;100.00
48041;BME280;33815;48.386;11.738;2023-03-31T02:18:28;95907.84;;;3.75;100.00
48041;BME280;33815;48.386;11.738;2023-03-31T02:20:58;95866.34;;;3.57;100.00
48041;BME280;33815;48.386;11.738;2023-03-31T02:23:26;95893.81;;;3.89;100.00
48041;BME280;33815;48.386;11.738;2023-03-31T02:26:20;95899.56;;;3.93;100.00
48041;BME280;33815;48.386;11.738;2023-03-31T02:28:47;95898.50;;;3.96;100.00
48041;BME280;33815;48.386;11.738;2023-03-31T02:31:18;95899.31;;;3.96;100.00
48041;BME280;33815;48.386;11.738;2023-03-31T02:33:46;95884.38;;;4.00;100.00
48041;BME280;33815;48.386;11.738;2023-03-31T02:36:12;95852.78;;;3.76;100.00
48041;BME280;33815;48.386;11.738;2023-03-31T02:38:45;95840.81;;;3.75;100.00
48041;BME280;33815;48.386;11.738;2023-03-31T02:41:12;95874.91;;;4.00;100.00
48041;BME280;33815;48.386;11.738;2023-03-31T02:43:38;95877.88;;;3.96;100.00
48041;BME280;33815;48.386;11.738;2023-03-31T02:46:03;95888.19;;;3.96;100.00
48041;BME280;33815;48.386;11.738;2023-03-31T02:48:32;95879.13;;;4.01;100.00
48041;BME280;33815;48.386;11.738;2023-03-31T02:54:08;95878.34;;;4.10;100.00
48041;BME280;33815;48.386;11.738;2023-03-31T02:57:16;95873.19;;;4.10;100.00
48041;BME280;33815;48.386;11.738;2023-03-31T02:59:57;95872.00;;;4.15;100.00
48041;BME280;33815;48.386;11.738;2023-03-31T03:02:34;95872.94;;;4.14;100.00
48041;BME280;33815;48.386;11.738;2023-03-31T03:05:21;95871.47;;;4.21;100.00
48041;BME280;33815;48.386;11.738;2023-03-31T03:13:45;95864.09;;;4.37;100.00
48041;BME280;33815;48.386;11.738;2023-03-31T03:16:18;95862.88;;;4.41;100.00
48041;BME280;33815;48.386;11.738;2023-03-31T03:18:56;95865.06;;;4.46;100.00
48041;BME280;33815;48.386;11.738;2023-03-31T03:21:21;95872.03;;;4.55;100.00
48041;BME280;33815;48.386;11.738;2023-03-31T03:23:47;95867.44;;;4.59;100.00
48041;BME280;33815;48.386;11.738;2023-03-31T03:26:12;95846.63;;;4.51;100.00
48041;BME280;33815;48.386;11.738;2023-03-31T03:28:37;95871.66;;;4.70;100.00
48041;BME280;33815;48.386;11.738;2023-03-31T03:31:02;95879.97;;;4.73;100.00
48041;BME280;33815;48.386;11.738;2023-03-31T03:33:27;95880.53;;;4.77;100.00
48041;BME280;33815;48.386;11.738;2023-03-31T03:35:53;95876.31;;;4.76;100.00
48041;BME280;33815;48.386;11.738;2023-03-31T03:38:18;95878.47;;;4.71;100.00
48041;BME280;33815;48.386;11.738;2023-03-31T03:40:43;95890.97;;;4.75;100.00
48041;BME280;33815;48.386;11.738;2023-03-31T03:43:09;95892.88;;;4.73;100.00
48041;BME280;33815;48.386;11.738;2023-03-31T03:45:34;95864.03;;;4.58;100.00
48041;BME280;33815;48.386;11.738;2023-03-31T03:47:59;95900.28;;;4.97;100.00
48041;BME280;33815;48.386;11.738;2023-03-31T03:50:24;95897.34;;;5.22;100.00
48041;BME280;33815;48.386;11.738;2023-03-31T03:52:50;95887.16;;;5.59;100.00
48041;BME280;33815;48.386;11.738;2023-03-31T03:55:15;95882.69;;;5.81;100.00
48041;BME280;33815;48.386;11.738;2023-03-31T03:57:42;95879.13;;;6.02;100.00
48041;BME280;33815;48.386;11.738;2023-03-31T04:00:07;95877.72;;;6.17;100.00
48041;BME280;33815;48.386;11.738;2023-03-31T04:02:36;95857.59;;;6.21;100.00
48041;BME280;33815;48.386;11.738;2023-03-31T04:05:02;95777.47;;;5.81;100.00
48041;BME280;33815;48.386;11.738;2023-03-31T04:07:27;95835.78;;;6.23;100.00
48041;BME280;33815;48.386;11.738;2023-03-31T04:09:53;95830.19;;;6.28;100.00
48041;BME280;33815;48.386;11.738;2023-03-31T04:12:18;95835.59;;;6.34;100.00
48041;BME280;33815;48.386;11.738;2023-03-31T04:14:43;95834.06;;;6.42;100.00
48041;BME280;33815;48.386;11.738;2023-03-31T04:17:08;95825.47;;;6.51;100.00
48041;BME280;33815;48.386;11.738;2023-03-31T04:19:34;95828.72;;;6.53;100.00
48041;BME280;33815;48.386;11.738;2023-03-31T04:22:00;95828.91;;;6.42;100.00
48041;BME280;33815;48.386;11.738;2023-03-31T04:24:27;95826.47;;;6.40;100.00
48041;BME280;33815;48.386;11.738;2023-03-31T04:26:55;95825.78;;;6.38;100.00
48041;BME280;33815;48.386;11.738;2023-03-31T04:29:21;95820.75;;;6.37;100.00
48041;BME280;33815;48.386;11.738;2023-03-31T04:31:54;95785.13;;;6.21;100.00
48041;BME280;33815;48.386;11.738;2023-03-31T04:34:23;95778.84;;;6.23;100.00
48041;BME280;33815;48.386;11.738;2023-03-31T04:36:51;95808.06;;;6.43;100.00
48041;BME280;33815;48.386;11.738;2023-03-31T04:39:21;95802.56;;;6.46;100.00
48041;BME280;33815;48.386;11.738;2023-03-31T04:41:55;95799.47;;;6.43;100.00
48041;BME280;33815;48.386;11.738;2023-03-31T04:44:20;95790.28;;;6.58;100.00
48041;BME280;33815;48.386;11.738;2023-03-31T04:46:45;95772.25;;;6.66;100.00
48041;BME280;33815;48.386;11.738;2023-03-31T04:49:11;95772.38;;;6.83;100.00
48041;BME280;33815;48.386;11.738;2023-03-31T04:51:36;95768.69;;;6.85;100.00
48041;BME280;33815;48.386;11.738;2023-03-31T04:54:01;95761.44;;;6.71;100.00
48041;BME280;33815;48.386;11.738;2023-03-31T04:56:27;95773.38;;;6.82;100.00
48041;BME280;33815;48.386;11.738;2023-03-31T04:58:52;95773.50;;;6.62;100.00
48041;BME280;33815;48.386;11.738;2023-03-31T05:01:17;95721.91;;;6.51;100.00
48041;BME280;33815;48.386;11.738;2023-03-31T05:03:44;95721.19;;;6.77;100.00
48041;BME280;33815;48.386;11.738;2023-03-31T05:06:10;95721.91;;;6.87;100.00
48041;BME280;33815;48.386;11.738;2023-03-31T05:08:35;95717.84;;;6.84;100.00
48041;BME280;33815;48.386;11.738;2023-03-31T05:11:02;95675.59;;;6.66;100.00
48041;BME280;33815;48.386;11.738;2023-03-31T05:13:28;95692.84;;;6.75;100.00
48041;BME280;33815;48.386;11.738;2023-03-31T05:15:54;95676.66;;;6.55;100.00
48041;BME280;33815;48.386;11.738;2023-03-31T05:18:19;95672.72;;;6.51;100.00
48041;BME280;33815;48.386;11.738;2023-03-31T05:20:44;95653.84;;;6.41;100.00
48041;BME280;33815;48.386;11.738;2023-03-31T05:23:11;95660.75;;;6.50;100.00
48041;BME280;33815;48.386;11.738;2023-03-31T05:25:36;95659.19;;;6.57;100.00
48041;BME280;33815;48.386;11.738;2023-03-31T05:28:02;95646.31;;;6.65;100.00
48041;BME280;33815;48.386;11.738;2023-03-31T05:30:28;95645.78;;;6.62;100.00
48041;BME280;33815;48.386;11.738;2023-03-31T05:32:54;95636.50;;;6.51;100.00
48041;BME280;33815;48.386;11.738;2023-03-31T05:35:20;95630.63;;;6.49;100.00
48041;BME280;33815;48.386;11.738;2023-03-31T05:37:46;95624.13;;;6.63;100.00
48041;BME280;33815;48.386;11.738;2023-03-31T05:40:11;95626.25;;;6.67;100.00
48041;BME280;33815;48.386;11.738;2023-03-31T05:42:37;95623.38;;;6.71;100.00
48041;BME280;33815;48.386;11.738;2023-03-31T05:45:03;95603.56;;;6.61;100.00
48041;BME280;33815;48.386;11.738;2023-03-31T05:47:28;95575.97;;;6.52;100.00
48041;BME280;33815;48.386;11.738;2023-03-31T05:49:54;95575.22;;;6.60;100.00
48041;BME280;33815;48.386;11.738;2023-03-31T05:52:19;95548.41;;;6.43;100.00
48041;BME280;33815;48.386;11.738;2023-03-31T05:54:44;95566.44;;;6.53;100.00
48041;BME280;33815;48.386;11.738;2023-03-31T05:57:10;95559.00;;;6.58;100.00
48041;BME280;33815;48.386;11.738;2023-03-31T05:59:35;95536.97;;;6.54;100.00
48041;BME280;33815;48.386;11.738;2023-03-31T06:02:02;95532.31;;;6.57;100.00
48041;BME280;33815;48.386;11.738;2023-03-31T06:04:28;95501.66;;;6.44;100.00
48041;BME280;33815;48.386;11.738;2023-03-31T06:06:53;95538.88;;;6.69;100.00
48041;BME280;33815;48.386;11.738;2023-03-31T06:09:20;95528.06;;;6.74;100.00
48041;BME280;33815;48.386;11.738;2023-03-31T06:11:45;95517.59;;;6.84;100.00
48041;BME280;33815;48.386;11.738;2023-03-31T06:14:11;95499.06;;;6.97;100.00
48041;BME280;33815;48.386;11.738;2023-03-31T06:16:36;95498.81;;;7.16;100.00
48041;BME280;33815;48.386;11.738;2023-03-31T06:19:01;95491.56;;;7.20;100.00
48041;BME280;33815;48.386;11.738;2023-03-31T06:21:27;95492.75;;;7.34;100.00
48041;BME280;33815;48.386;11.738;2023-03-31T06:23:52;95466.22;;;7.48;100.00
48041;BME280;33815;48.386;11.738;2023-03-31T06:26:20;95490.44;;;7.82;100.00
48041;BME280;33815;48.386;11.738;2023-03-31T06:28:46;95436.91;;;7.56;100.00
48041;BME280;33815;48.386;11.738;2023-03-31T06:31:14;95456.06;;;7.88;100.00
48041;BME280;33815;48.386;11.738;2023-03-31T06:33:41;95448.47;;;8.11;100.00
48041;BME280;33815;48.386;11.738;2023-03-31T06:36:07;95456.22;;;7.95;100.00
48041;BME280;33815;48.386;11.738;2023-03-31T06:38:34;95446.34;;;7.82;100.00
48041;BME280;33815;48.386;11.738;2023-03-31T06:40:59;95454.47;;;7.87;100.00
48041;BME280;33815;48.386;11.738;2023-03-31T06:43:25;95445.22;;;7.93;100.00
48041;BME280;33815;48.386;11.738;2023-03-31T06:45:54;95432.88;;;7.86;100.00
48041;BME280;33815;48.386;11.738;2023-03-31T06:48:20;95440.66;;;8.03;100.00
48041;BME280;33815;48.386;11.738;2023-03-31T06:50:46;95440.66;;;8.11;100.00
48041;BME280;33815;48.386;11.738;2023-03-31T06:53:11;95423.28;;;8.28;100.00
48041;BME280;33815;48.386;11.738;2023-03-31T06:55:37;95403.00;;;8.48;100.00
48041;BME280;33815;48.386;11.738;2023-03-31T06:58:03;95422.00;;;8.49;100.00
48041;BME280;33815;48.386;11.738;2023-03-31T07:00:31;95422.97;;;8.31;100.00
48041;BME280;33815;48.386;11.738;2023-03-31T07:02:56;95421.81;;;8.42;100.00
48041;BME280;33815;48.386;11.738;2023-03-31T07:05:22;95424.44;;;8.26;100.00
48041;BME280;33815;48.386;11.738;2023-03-31T07:07:54;95450.72;;;8.22;100.00
48041;BME280;33815;48.386;11.738;2023-03-31T07:10:19;95479.91;;;8.00;100.00
48041;BME280;33815;48.386;11.738;2023-03-31T07:12:45;95443.06;;;7.80;100.00
48041;BME280;33815;48.386;11.738;2023-03-31T07:15:10;95499.22;;;7.97;100.00
48041;BME280;33815;48.386;11.738;2023-03-31T07:17:36;95515.06;;;7.78;100.00
48041;BME280;33815;48.386;11.738;2023-03-31T07:20:14;95537.28;;;7.80;100.00
48041;BME280;33815;48.386;11.738;2023-03-31T07:22:41;95542.22;;;7.57;100.00
48041;BME280;33815;48.386;11.738;2023-03-31T07:25:11;95574.38;;;7.72;100.00
48041;BME280;33815;48.386;11.738;2023-03-31T07:27:37;95569.50;;;7.69;100.00
48041;BME280;33815;48.386;11.738;2023-03-31T07:30:06;95582.13;;;7.56;100.00
48041;BME280;33815;48.386;11.738;2023-03-31T07:32:32;95568.13;;;7.41;100.00
48041;BME280;33815;48.386;11.738;2023-03-31T07:34:58;95543.88;;;7.15;100.00
48041;BME280;33815;48.386;11.738;2023-03-31T07:37:23;95555.59;;;7.36;100.00
48041;BME280;33815;48.386;11.738;2023-03-31T07:39:49;95574.69;;;7.35;100.00
48041;BME280;33815;48.386;11.738;2023-03-31T07:42:14;95576.00;;;7.31;100.00
48041;BME280;33815;48.386;11.738;2023-03-31T07:44:40;95596.81;;;7.47;100.00
48041;BME280;33815;48.386;11.738;2023-03-31T07:47:05;95576.91;;;7.48;100.00
48041;BME280;33815;48.386;11.738;2023-03-31T07:49:32;95571.75;;;7.56;100.00
48041;BME280;33815;48.386;11.738;2023-03-31T07:51:57;95586.31;;;7.57;100.00
48041;BME280;33815;48.386;11.738;2023-03-31T07:54:23;95488.75;;;7.64;100.00
48041;BME280;33815;48.386;11.738;2023-03-31T07:56:48;95479.41;;;7.71;100.00
48041;BME280;33815;48.386;11.738;2023-03-31T07:59:14;95450.22;;;7.69;100.00
48041;BME280;33815;48.386;11.738;2023-03-31T08:01:40;95450.88;;;8.13;100.00
48041;BME280;33815;48.386;11.738;2023-03-31T08:04:05;95420.53;;;8.13;100.00
48041;BME280;33815;48.386;11.738;2023-03-31T08:06:32;95405.13;;;8.20;100.00
48041;BME280;33815;48.386;11.738;2023-03-31T08:08:57;95447.00;;;8.33;100.00
48041;BME280;33815;48.386;11.738;2023-03-31T08:11:23;95449.09;;;8.21;100.00
48041;BME280;33815;48.386;11.738;2023-03-31T08:13:49;95422.34;;;8.21;100.00
48041;BME280;33815;48.386;11.738;2023-03-31T08:16:15;95414.22;;;8.16;100.00
48041;BME280;33815;48.386;11.738;2023-03-31T08:18:40;95395.03;;;8.41;100.00
48041;BME280;33815;48.386;11.738;2023-03-31T08:21:06;95394.56;;;8.54;100.00
48041;BME280;33815;48.386;11.738;2023-03-31T08:23:31;95374.94;;;8.52;100.00
48041;BME280;33815;48.386;11.738;2023-03-31T08:26:14;95377.13;;;8.71;100.00
48041;BME280;33815;48.386;11.738;2023-03-31T08:28:41;95360.72;;;8.71;100.00
48041;BME280;33815;48.386;11.738;2023-03-31T08:31:07;95368.59;;;8.94;100.00
48041;BME280;33815;48.386;11.738;2023-03-31T08:33:34;95330.66;;;8.77;100.00
48041;BME280;33815;48.386;11.738;2023-03-31T08:36:01;95347.81;;;8.94;100.00
48041;BME280;33815;48.386;11.738;2023-03-31T08:38:27;95299.38;;;8.70;100.00
48041;BME280;33815;48.386;11.738;2023-03-31T08:40:58;95336.66;;;8.85;100.00
48041;BME280;33815;48.386;11.738;2023-03-31T08:43:29;95337.22;;;8.96;100.00
48041;BME280;33815;48.386;11.738;2023-03-31T08:45:56;95322.41;;;9.04;100.00
48041;BME280;33815;48.386;11.738;2023-03-31T08:48:28;95330.72;;;9.00;100.00
48041;BME280;33815;48.386;11.738;2023-03-31T08:50:58;95342.56;;;9.02;100.00
48041;BME280;33815;48.386;11.738;2023-03-31T08:53:28;95313.13;;;8.79;100.00
48041;BME280;33815;48.386;11.738;2023-03-31T08:55:56;95306.03;;;8.72;100.00
48041;BME280;33815;48.386;11.738;2023-03-31T09:09:28;95477.78;;;8.78;100.00
48041;BME280;33815;48.386;11.738;2023-03-31T09:12:00;95436.72;;;8.73;100.00
48041;BME280;33815;48.386;11.738;2023-03-31T09:14:30;95427.75;;;8.84;100.00
48041;BME280;33815;48.386;11.738;2023-03-31T09:17:06;95440.56;;;8.94;100.00
48041;BME280;33815;48.386;11.738;2023-03-31T09:19:56;95406.28;;;8.90;100.00
48041;BME280;33815;48.386;11.738;2023-03-31T09:22:29;95409.31;;;9.02;100.00
48041;BME280;33815;48.386;11.738;2023-03-31T09:25:04;95377.06;;;8.88;100.00
48041;BME280;33815;48.386;11.738;2023-03-31T09:27:32;95357.69;;;8.99;100.00
48041;BME280;33815;48.386;11.738;2023-03-31T09:30:15;95399.78;;;9.57;100.00
48041;BME280;33815;48.386;11.738;2023-03-31T09:32:44;95392.41;;;9.84;100.00
48041;BME280;33815;48.386;11.738;2023-03-31T09:35:16;95380.69;;;10.03;100.00
48041;BME280;33815;48.386;11.738;2023-03-31T09:37:42;95370.44;;;10.39;100.00
48041;BME280;33815;48.386;11.738;2023-03-31T09:40:15;95347.84;;;10.55;100.00
48041;BME280;33815;48.386;11.738;2023-03-31T09:42:41;95356.78;;;10.97;100.00
48041;BME280;33815;48.386;11.738;2023-03-31T09:45:14;95340.06;;;11.28;100.00
48041;BME280;33815;48.386;11.738;2023-03-31T09:47:43;95289.38;;;11.37;100.00
48041;BME280;33815;48.386;11.738;2023-03-31T09:50:10;95292.09;;;11.29;100.00
48041;BME280;33815;48.386;11.738;2023-03-31T09:52:39;95306.06;;;11.36;100.00
48041;BME280;33815;48.386;11.738;2023-03-31T09:57:47;95330.88;;;11.54;100.00
48041;BME280;33815;48.386;11.738;2023-03-31T10:00:13;95352.19;;;12.00;100.00
48041;BME280;33815;48.386;11.738;2023-03-31T10:05:31;95349.59;;;12.36;100.00
48041;BME280;33815;48.386;11.738;2023-03-31T10:08:17;95346.63;;;12.74;100.00
48041;BME280;33815;48.386;11.738;2023-03-31T10:10:44;95353.56;;;13.01;100.00
48041;BME280;33815;48.386;11.738;2023-03-31T10:13:15;95344.56;;;13.17;100.00
48041;BME280;33815;48.386;11.738;2023-03-31T10:15:41;95348.41;;;13.22;97.02
48041;BME280;33815;48.386;11.738;2023-03-31T10:18:18;95337.63;;;13.71;100.00
48041;BME280;33815;48.386;11.738;2023-03-31T10:20:49;95324.56;;;13.98;100.00
48041;BME280;33815;48.386;11.738;2023-03-31T10:23:25;95313.03;;;14.33;95.80
48041;BME280;33815;48.386;11.738;2023-03-31T10:25:51;95316.91;;;14.17;88.10
48041;BME280;33815;48.386;11.738;2023-03-31T10:28:19;95298.75;;;13.95;88.50
48041;BME280;33815;48.386;11.738;2023-03-31T10:30:52;95315.69;;;14.06;86.97
48041;BME280;33815;48.386;11.738;2023-03-31T10:33:24;95289.50;;;13.99;80.72
48041;BME280;33815;48.386;11.738;2023-03-31T10:35:55;95286.91;;;13.52;85.13
48041;BME280;33815;48.386;11.738;2023-03-31T10:38:27;95285.06;;;13.86;85.62
48041;BME280;33815;48.386;11.738;2023-03-31T10:40:56;95278.41;;;14.04;82.36
48041;BME280;33815;48.386;11.738;2023-03-31T10:43:39;95273.56;;;14.21;75.99
48041;BME280;33815;48.386;11.738;2023-03-31T10:46:05;95275.75;;;14.31;77.65
48041;BME280;33815;48.386;11.738;2023-03-31T10:48:33;95258.41;;;14.88;82.35
48041;BME280;33815;48.386;11.738;2023-03-31T10:51:09;95232.72;;;15.04;80.50
48041;BME280;33815;48.386;11.738;2023-03-31T10:53:40;95241.59;;;15.35;79.60
48041;BME280;33815;48.386;11.738;2023-03-31T10:56:14;95236.00;;;15.24;70.81
48041;BME280;33815;48.386;11.738;2023-03-31T10:58:58;95248.25;;;15.05;70.60
48041;BME280;33815;48.386;11.738;2023-03-31T11:04:15;95240.22;;;14.94;70.29
48041;BME280;33815;48.386;11.738;2023-03-31T11:12:20;95200.97;;;15.12;60.91
48041;BME280;33815;48.386;11.738;2023-03-31T11:20:41;95193.00;;;14.48;62.32
48041;BME280;33815;48.386;11.738;2023-03-31T11:23:31;95191.44;;;14.41;62.60
48041;BME280;33815;48.386;11.738;2023-03-31T11:26:16;95187.56;;;14.43;63.14
48041;BME280;33815;48.386;11.738;2023-03-31T11:29:05;95156.19;;;14.36;63.31
48041;BME280;33815;48.386;11.738;2023-03-31T11:36:51;95230.69;;;13.68;68.15
48041;BME280;33815;48.386;11.738;2023-03-31T11:39:43;95238.34;;;13.30;70.83
48041;BME280;33815;48.386;11.738;2023-03-31T11:42:38;95221.38;;;12.37;76.31
48041;BME280;33815;48.386;11.738;2023-03-31T11:45:33;95205.50;;;11.34;81.92
48041;BME280;33815;48.386;11.738;2023-03-31T11:48:04;95137.63;;;10.99;83.05
48041;BME280;33815;48.386;11.738;2023-03-31T11:50:36;95172.28;;;11.21;85.98
48041;BME280;33815;48.386;11.738;2023-03-31T11:53:13;95187.03;;;11.63;87.17
48041;BME280;33815;48.386;11.738;2023-03-31T11:55:39;95197.94;;;11.74;85.21
48041;BME280;33815;48.386;11.738;2023-03-31T11:58:16;95175.47;;;11.73;84.51
48041;BME280;33815;48.386;11.738;2023-03-31T12:03:37;95147.91;;;12.67;89.03
48041;BME280;33815;48.386;11.738;2023-03-31T12:06:11;95159.03;;;13.36;82.44
48041;BME280;33815;48.386;11.738;2023-03-31T12:08:46;95167.47;;;13.25;82.99
48041;BME280;33815;48.386;11.738;2023-03-31T12:11:33;95144.09;;;13.77;82.48
48041;BME280;33815;48.386;11.738;2023-03-31T12:14:14;95135.25;;;13.64;76.56
48041;BME280;33815;48.386;11.738;2023-03-31T12:16:47;95127.81;;;13.61;72.46
48041;BME280;33815;48.386;11.738;2023-03-31T12:19:24;95126.59;;;13.57;70.05
48041;BME280;33815;48.386;11.738;2023-03-31T12:21:55;95094.84;;;13.40;68.80
48041;BME280;33815;48.386;11.738;2023-03-31T12:24:22;95114.13;;;13.59;70.96
48041;BME280;33815;48.386;11.738;2023-03-31T12:27:03;95105.59;;;13.77;70.04
48041;BME280;33815;48.386;11.738;2023-03-31T12:29:33;95103.19;;;13.76;67.84
48041;BME280;33815;48.386;11.738;2023-03-31T12:32:04;95091.28;;;13.80;65.92
48041;BME280;33815;48.386;11.738;2023-03-31T12:34:32;95076.00;;;13.83;68.78
48041;BME280;33815;48.386;11.738;2023-03-31T12:40:01;95064.72;;;14.21;63.94
48041;BME280;33815;48.386;11.738;2023-03-31T12:42:57;95069.66;;;14.75;66.33
48041;BME280;33815;48.386;11.738;2023-03-31T12:45:29;95069.38;;;15.08;64.84
48041;BME280;33815;48.386;11.738;2023-03-31T12:51:16;95066.84;;;14.70;58.73
48041;BME280;33815;48.386;11.738;2023-03-31T12:54:03;95065.41;;;14.42;58.99
48041;BME280;33815;48.386;11.738;2023-03-31T12:59:37;95076.06;;;14.79;59.75
48041;BME280;33815;48.386;11.738;2023-03-31T13:04:35;95075.97;;;14.67;58.97
48041;BME280;33815;48.386;11.738;2023-03-31T13:07:02;95080.91;;;14.50;59.58
48041;BME280;33815;48.386;11.738;2023-03-31T13:09:40;95095.69;;;14.38;61.01
48041;BME280;33815;48.386;11.738;2023-03-31T13:12:11;95091.69;;;14.29;61.64
48041;BME280;33815;48.386;11.738;2023-03-31T13:14:38;95092.69;;;13.89;62.25
48041;BME280;33815;48.386;11.738;2023-03-31T13:17:25;95097.59;;;13.72;62.16
48041;BME280;33815;48.386;11.738;2023-03-31T13:19:52;95099.59;;;13.70;64.08
48041;BME280;33815;48.386;11.738;2023-03-31T13:22:35;95066.22;;;13.52;64.19
48041;BME280;33815;48.386;11.738;2023-03-31T13:27:56;95040.91;;;13.12;66.22
48041;BME280;33815;48.386;11.738;2023-03-31T13:36:22;95061.03;;;13.05;65.34
48041;BME280;33815;48.386;11.738;2023-03-31T13:41:51;95070.44;;;14.05;62.70
48041;BME280;33815;48.386;11.738;2023-03-31T13:50:01;95118.47;;;12.31;82.15
48041;BME280;33815;48.386;11.738;2023-03-31T14:00:26;95125.69;;;11.46;91.64
48041;BME280;33815;48.386;11.738;2023-03-31T14:03:16;95118.63;;;11.40;88.14
48041;BME280;33815;48.386;11.738;2023-03-31T14:05:56;95107.22;;;11.41;87.07
48041;BME280;33815;48.386;11.738;2023-03-31T14:08:38;95119.66;;;11.80;81.67
48041;BME280;33815;48.386;11.738;2023-03-31T14:11:16;95114.44;;;12.22;79.11
48041;BME280;33815;48.386;11.738;2023-03-31T14:13:41;95114.91;;;12.46;78.35
48041;BME280;33815;48.386;11.738;2023-03-31T14:16:07;95131.97;;;12.35;76.33
48041;BME280;33815;48.386;11.738;2023-03-31T14:18:36;95129.31;;;12.28;75.51
48041;BME280;33815;48.386;11.738;2023-03-31T14:21:22;95128.91;;;12.25;75.57
48041;BME280;33815;48.386;11.738;2023-03-31T14:24:03;95143.31;;;12.07;77.92
48041;BME280;33815;48.386;11.738;2023-03-31T14:27:06;95129.75;;;12.32;81.39
48041;BME280;33815;48.386;11.738;2023-03-31T14:29:49;95119.31;;;12.39;80.22
48041;BME280;33815;48.386;11.738;2023-03-31T14:32:49;95101.22;;;12.44;76.61
48041;BME280;33815;48.386;11.738;2023-03-31T14:35:27;95103.84;;;12.44;75.57
48041;BME280;33815;48.386;11.738;2023-03-31T14:37:56;95108.84;;;12.32;74.47
48041;BME280;33815;48.386;11.738;2023-03-31T14:40:22;95100.00;;;12.26;75.88
48041;BME280;33815;48.386;11.738;2023-03-31T14:42:48;95085.84;;;12.07;74.07
48041;BME280;33815;48.386;11.738;2023-03-31T14:45:20;95085.88;;;12.14;75.51
48041;BME280;33815;48.386;11.738;2023-03-31T14:48:11;95089.53;;;12.26;74.08
48041;BME280;33815;48.386;11.738;2023-03-31T14:50:42;95112.44;;;12.18;72.68